sensor_id;sensor_type;location;lat;lon;timestamp;P1;durP1;ratioP1;P2;durP2;ratioP2
32329;SDS011;18807;52.434;13.238;2023-04-01T00:07:12;3.28;;;1.63;;
32329;SDS011;18807;52.434;13.238;2023-04-01T00:14:46;2.55;;;1.30;;
32329;SDS011;18807;52.434;13.238;2023-04-01T00:22:21;2.75;;;2.05;;
32329;SDS011;18807;52.434;13.238;2023-04-01T00:29:56;1.83;;;1.05;;
32329;SDS011;18807;52.434;13.238;2023-04-01T00:37:34;2.43;;;1.10;;
32329;SDS011;18807;52.434;13.238;2023-04-01T00:45:28;2.10;;;1.15;;
32329;SDS011;18807;52.434;13.238;2023-04-01T00:53:06;1.50;;;1.02;;
32329;SDS011;18807;52.434;13.238;2023-04-01T01:00:42;2.30;;;1.13;;
32329;SDS011;18807;52.434;13.238;2023-04-01T01:08:19;3.42;;;1.20;;
32329;SDS011;18807;52.434;13.238;2023-04-01T01:16:05;2.50;;;1.33;;
32329;SDS011;18807;52.434;13.238;2023-04-01T01:23:50;1.60;;;1.40;;
32329;SDS011;18807;52.434;13.238;2023-04-01T01:31:49;1.27;;;1.17;;
32329;SDS011;18807;52.434;13.238;2023-04-01T01:39:31;2.65;;;1.35;;
32329;SDS011;18807;52.434;13.238;2023-04-01T01:47:08;2.92;;;1.67;;
32329;SDS011;18807;52.434;13.238;2023-04-01T01:54:48;3.30;;;1.90;;
32329;SDS011;18807;52.434;13.238;2023-04-01T02:02:22;4.07;;;2.33;;
32329;SDS011;18807;52.434;13.238;2023-04-01T02:10:00;3.13;;;2.10;;
32329;SDS011;18807;52.434;13.238;2023-04-01T02:17:34;10.20;;;5.60;;
32329;SDS011;18807;52.434;13.238;2023-04-01T02:25:16;3.15;;;2.22;;
32329;SDS011;18807;52.434;13.238;2023-04-01T02:32:54;4.88;;;2.05;;
32329;SDS011;18807;52.434;13.238;2023-04-01T02:40:40;2.50;;;1.60;;
32329;SDS011;18807;52.434;13.238;2023-04-01T02:48:15;2.55;;;1.75;;
32329;SDS011;18807;52.434;13.238;2023-04-01T02:55:50;3.97;;;2.20;;
32329;SDS011;18807;52.434;13.238;2023-04-01T03:03:24;3.17;;;1.85;;
32329;SDS011;18807;52.434;13.238;2023-04-01T03:11:00;3.03;;;2.00;;
32329;SDS011;18807;52.434;13.238;2023-04-01T03:18:34;5.18;;;2.30;;
32329;SDS011;18807;52.434;13.238;2023-04-01T03:26:27;4.38;;;1.75;;
32329;SDS011;18807;52.434;13.238;2023-04-01T03:34:01;3.63;;;2.10;;
32329;SDS011;18807;52.434;13.238;2023-04-01T03:41:54;4.50;;;1.73;;
32329;SDS011;18807;52.434;13.238;2023-04-01T03:49:28;3.17;;;1.98;;
32329;SDS011;18807;52.434;13.238;2023-04-01T04:04:58;2.95;;;1.73;;
32329;SDS011;18807;52.434;13.238;2023-04-01T04:12:34;2.93;;;1.70;;
32329;SDS011;18807;52.434;13.238;2023-04-01T04:20:08;3.65;;;2.05;;
32329;SDS011;18807;52.434;13.238;2023-04-01T04:27:44;2.90;;;2.03;;
32329;SDS011;18807;52.434;13.238;2023-04-01T04:35:17;3.67;;;2.40;;
32329;SDS011;18807;52.434;13.238;2023-04-01T04:42:53;4.97;;;2.42;;
32329;SDS011;18807;52.434;13.238;2023-04-01T04:50:27;4.82;;;2.33;;
32329;SDS011;18807;52.434;13.238;2023-04-01T04:58:02;4.20;;;2.70;;
32329;SDS011;18807;52.434;13.238;2023-04-01T05:05:36;3.20;;;2.35;;
32329;SDS011;18807;52.434;13.238;2023-04-01T05:13:11;3.73;;;2.10;;
32329;SDS011;18807;52.434;13.238;2023-04-01T05:20:46;3.72;;;2.38;;
32329;SDS011;18807;52.434;13.238;2023-04-01T05:28:22;3.60;;;2.60;;
32329;SDS011;18807;52.434;13.238;2023-04-01T05:35:56;4.32;;;2.88;;
32329;SDS011;18807;52.434;13.238;2023-04-01T05:43:39;5.53;;;3.00;;
32329;SDS011;18807;52.434;13.238;2023-04-01T05:51:14;4.75;;;3.00;;
32329;SDS011;18807;52.434;13.238;2023-04-01T05:58:51;6.07;;;2.58;;
32329;SDS011;18807;52.434;13.238;2023-04-01T06:06:27;5.20;;;2.53;;
32329;SDS011;18807;52.434;13.238;2023-04-01T06:14:10;7.25;;;3.45;;
32329;SDS011;18807;52.434;13.238;2023-04-01T06:29:54;4.35;;;2.75;;
32329;SDS011;18807;52.434;13.238;2023-04-01T06:37:44;4.10;;;3.13;;
32329;SDS011;18807;52.434;13.238;2023-04-01T06:45:37;8.50;;;2.80;;
32329;SDS011;18807;52.434;13.238;2023-04-01T06:53:18;6.43;;;2.30;;
32329;SDS011;18807;52.434;13.238;2023-04-01T07:00:58;4.10;;;3.10;;
32329;SDS011;18807;52.434;13.238;2023-04-01T07:08:35;4.47;;;1.88;;
32329;SDS011;18807;52.434;13.238;2023-04-01T07:16:15;2.78;;;1.67;;
32329;SDS011;18807;52.434;13.238;2023-04-01T07:23:53;6.65;;;2.70;;
32329;SDS011;18807;52.434;13.238;2023-04-01T07:31:36;7.35;;;1.80;;
32329;SDS011;18807;52.434;13.238;2023-04-01T07:39:27;4.17;;;2.00;;
32329;SDS011;18807;52.434;13.238;2023-04-01T07:47:18;2.25;;;1.60;;
32329;SDS011;18807;52.434;13.238;2023-04-01T07:55:07;3.45;;;2.05;;
32329;SDS011;18807;52.434;13.238;2023-04-01T08:02:54;3.83;;;1.92;;
32329;SDS011;18807;52.434;13.238;2023-04-01T08:10:43;4.75;;;1.73;;
32329;SDS011;18807;52.434;13.238;2023-04-01T08:18:28;2.78;;;1.70;;
32329;SDS011;18807;52.434;13.238;2023-04-01T08:26:16;1.88;;;1.30;;
32329;SDS011;18807;52.434;13.238;2023-04-01T08:33:58;4.95;;;1.63;;
32329;SDS011;18807;52.434;13.238;2023-04-01T08:41:41;5.82;;;1.42;;
32329;SDS011;18807;52.434;13.238;2023-04-01T08:49:43;3.70;;;1.38;;
32329;SDS011;18807;52.434;13.238;2023-04-01T08:57:36;2.05;;;1.85;;
32329;SDS011;18807;52.434;13.238;2023-04-01T09:05:22;5.15;;;2.20;;
32329;SDS011;18807;52.434;13.238;2023-04-01T09:21:14;1.15;;;0.80;;
32329;SDS011;18807;52.434;13.238;2023-04-01T09:29:28;1.85;;;1.00;;
32329;SDS011;18807;52.434;13.238;2023-04-01T09:37:19;2.22;;;1.20;;
32329;SDS011;18807;52.434;13.238;2023-04-01T09:44:56;3.38;;;2.20;;
32329;SDS011;18807;52.434;13.238;2023-04-01T09:52:34;3.80;;;2.72;;
32329;SDS011;18807;52.434;13.238;2023-04-01T10:00:21;5.88;;;4.13;;
32329;SDS011;18807;52.434;13.238;2023-04-01T10:08:20;7.07;;;4.57;;
32329;SDS011;18807;52.434;13.238;2023-04-01T10:40:37;7.93;;;4.97;;
32329;SDS011;18807;52.434;13.238;2023-04-01T10:57:00;10.05;;;7.00;;
32329;SDS011;18807;52.434;13.238;2023-04-01T11:13:00;8.48;;;5.82;;
32329;SDS011;18807;52.434;13.238;2023-04-01T11:20:56;6.93;;;5.82;;
32329;SDS011;18807;52.434;13.238;2023-04-01T11:29:03;8.97;;;6.77;;
32329;SDS011;18807;52.434;13.238;2023-04-01T11:36:49;12.38;;;8.60;;
32329;SDS011;18807;52.434;13.238;2023-04-01T11:44:36;10.60;;;6.97;;
32329;SDS011;18807;52.434;13.238;2023-04-01T11:52:23;9.43;;;7.15;;
32329;SDS011;18807;52.434;13.238;2023-04-01T12:00:16;10.35;;;7.65;;
32329;SDS011;18807;52.434;13.238;2023-04-01T12:08:10;11.63;;;8.57;;
32329;SDS011;18807;52.434;13.238;2023-04-01T12:31:58;4.85;;;3.65;;
32329;SDS011;18807;52.434;13.238;2023-04-01T12:39:40;4.65;;;3.38;;
32329;SDS011;18807;52.434;13.238;2023-04-01T12:47:50;5.65;;;3.63;;
32329;SDS011;18807;52.434;13.238;2023-04-01T12:55:48;5.68;;;4.28;;
32329;SDS011;18807;52.434;13.238;2023-04-01T13:03:31;12.23;;;9.05;;
32329;SDS011;18807;52.434;13.238;2023-04-01T13:11:19;9.57;;;8.07;;
32329;SDS011;18807;52.434;13.238;2023-04-01T13:19:00;6.72;;;5.40;;
32329;SDS011;18807;52.434;13.238;2023-04-01T13:26:59;7.03;;;5.50;;
32329;SDS011;18807;52.434;13.238;2023-04-01T13:34:43;9.30;;;7.13;;
32329;SDS011;18807;52.434;13.238;2023-04-01T13:42:28;13.20;;;10.13;;
32329;SDS011;18807;52.434;13.238;2023-04-01T13:50:12;14.95;;;11.25;;
32329;SDS011;18807;52.434;13.238;2023-04-01T14:06:25;12.93;;;9.40;;
32329;SDS011;18807;52.434;13.238;2023-04-01T14:14:05;14.60;;;10.43;;
32329;SDS011;18807;52.434;13.238;2023-04-01T14:21:51;11.82;;;8.80;;
32329;SDS011;18807;52.434;13.238;2023-04-01T14:29:31;10.98;;;7.25;;
32329;SDS011;18807;52.434;13.238;2023-04-01T14:37:17;10.88;;;7.68;;
32329;SDS011;18807;52.434;13.238;2023-04-01T14:45:18;11.15;;;7.25;;
32329;SDS011;18807;52.434;13.238;2023-04-01T15:01:00;8.77;;;6.85;;
32329;SDS011;18807;52.434;13.238;2023-04-01T15:08:50;7.47;;;5.93;;
32329;SDS011;18807;52.434;13.238;2023-04-01T15:16:31;7.47;;;5.75;;
32329;SDS011;18807;52.434;13.238;2023-04-01T15:24:15;9.27;;;6.18;;
32329;SDS011;18807;52.434;13.238;2023-04-01T15:31:55;7.88;;;6.05;;
32329;SDS011;18807;52.434;13.238;2023-04-01T15:39:56;7.47;;;5.57;;
32329;SDS011;18807;52.434;13.238;2023-04-01T15:47:39;10.18;;;6.47;;
32329;SDS011;18807;52.434;13.238;2023-04-01T15:55:22;9.85;;;6.30;;
32329;SDS011;18807;52.434;13.238;2023-04-01T16:03:09;8.02;;;6.60;;
32329;SDS011;18807;52.434;13.238;2023-04-01T16:10:58;7.60;;;5.60;;
32329;SDS011;18807;52.434;13.238;2023-04-01T16:18:48;7.97;;;5.47;;
32329;SDS011;18807;52.434;13.238;2023-04-01T16:26:38;8.33;;;6.53;;
32329;SDS011;18807;52.434;13.238;2023-04-01T16:34:40;9.93;;;7.47;;
32329;SDS011;18807;52.434;13.238;2023-04-01T16:42:24;12.68;;;6.43;;
32329;SDS011;18807;52.434;13.238;2023-04-01T16:50:06;7.00;;;5.73;;
32329;SDS011;18807;52.434;13.238;2023-04-01T16:57:50;8.57;;;6.45;;
32329;SDS011;18807;52.434;13.238;2023-04-01T17:05:34;9.38;;;6.07;;
32329;SDS011;18807;52.434;13.238;2023-04-01T17:21:09;7.97;;;5.53;;
32329;SDS011;18807;52.434;13.238;2023-04-01T17:29:09;7.22;;;4.75;;
32329;SDS011;18807;52.434;13.238;2023-04-01T17:36:53;5.65;;;4.78;;
32329;SDS011;18807;52.434;13.238;2023-04-01T17:44:39;7.55;;;5.70;;
32329;SDS011;18807;52.434;13.238;2023-04-01T17:52:24;8.48;;;6.40;;
32329;SDS011;18807;52.434;13.238;2023-04-01T18:00:12;6.65;;;5.85;;
32329;SDS011;18807;52.434;13.238;2023-04-01T18:08:01;8.48;;;6.25;;
32329;SDS011;18807;52.434;13.238;2023-04-01T18:15:50;9.55;;;6.13;;
32329;SDS011;18807;52.434;13.238;2023-04-01T18:23:36;6.40;;;5.43;;
32329;SDS011;18807;52.434;13.238;2023-04-01T18:31:31;9.38;;;5.97;;
32329;SDS011;18807;52.434;13.238;2023-04-01T18:39:10;9.10;;;5.50;;
32329;SDS011;18807;52.434;13.238;2023-04-01T18:46:51;7.43;;;5.38;;
32329;SDS011;18807;52.434;13.238;2023-04-01T18:54:33;7.33;;;5.70;;
32329;SDS011;18807;52.434;13.238;2023-04-01T19:02:22;7.95;;;4.90;;
32329;SDS011;18807;52.434;13.238;2023-04-01T19:10:12;8.43;;;5.13;;
32329;SDS011;18807;52.434;13.238;2023-04-01T19:17:57;8.20;;;5.43;;
32329;SDS011;18807;52.434;13.238;2023-04-01T19:25:42;7.72;;;5.93;;
32329;SDS011;18807;52.434;13.238;2023-04-01T19:33:28;9.35;;;7.15;;
32329;SDS011;18807;52.434;13.238;2023-04-01T19:41:16;13.07;;;6.40;;
32329;SDS011;18807;52.434;13.238;2023-04-01T19:49:03;10.23;;;7.00;;
32329;SDS011;18807;52.434;13.238;2023-04-01T19:56:50;10.55;;;6.43;;
32329;SDS011;18807;52.434;13.238;2023-04-01T20:04:32;10.15;;;6.97;;
32329;SDS011;18807;52.434;13.238;2023-04-01T20:12:10;11.25;;;7.15;;
32329;SDS011;18807;52.434;13.238;2023-04-01T20:19:55;11.73;;;6.75;;
32329;SDS011;18807;52.434;13.238;2023-04-01T20:27:33;8.85;;;6.72;;
32329;SDS011;18807;52.434;13.238;2023-04-01T20:35:18;12.35;;;7.80;;
32329;SDS011;18807;52.434;13.238;2023-04-01T20:43:07;12.05;;;7.28;;
32329;SDS011;18807;52.434;13.238;2023-04-01T20:50:58;13.07;;;7.22;;
32329;SDS011;18807;52.434;13.238;2023-04-01T20:58:38;13.60;;;8.38;;
32329;SDS011;18807;52.434;13.238;2023-04-01T21:06:33;13.45;;;7.10;;
32329;SDS011;18807;52.434;13.238;2023-04-01T21:14:30;12.73;;;6.95;;
32329;SDS011;18807;52.434;13.238;2023-04-01T21:30:35;9.20;;;6.78;;
32329;SDS011;18807;52.434;13.238;2023-04-01T21:38:31;10.52;;;6.82;;
32329;SDS011;18807;52.434;13.238;2023-04-01T21:46:36;7.75;;;5.28;;
32329;SDS011;18807;52.434;13.238;2023-04-01T22:11:20;9.40;;;6.63;;
32329;SDS011;18807;52.434;13.238;2023-04-01T22:19:09;15.23;;;7.72;;
32329;SDS011;18807;52.434;13.238;2023-04-01T22:26:53;13.27;;;6.82;;
32329;SDS011;18807;52.434;13.238;2023-04-01T22:34:36;10.30;;;5.63;;
32329;SDS011;18807;52.434;13.238;2023-04-01T22:42:23;9.02;;;5.72;;
32329;SDS011;18807;52.434;13.238;2023-04-01T22:50:11;7.30;;;5.05;;
32329;SDS011;18807;52.434;13.238;2023-04-01T22:57:54;6.20;;;4.35;;
32329;SDS011;18807;52.434;13.238;2023-04-01T23:05:34;6.80;;;4.60;;
32329;SDS011;18807;52.434;13.238;2023-04-01T23:13:13;6.65;;;3.83;;
32329;SDS011;18807;52.434;13.238;2023-04-01T23:20:58;6.43;;;4.65;;
32329;SDS011;18807;52.434;13.238;2023-04-01T23:28:48;6.90;;;6.20;;
32329;SDS011;18807;52.434;13.238;2023-04-01T23:36:26;8.63;;;5.80;;
32329;SDS011;18807;52.434;13.238;2023-04-01T23:44:01;7.43;;;4.50;;
32329;SDS011;18807;52.434;13.238;2023-04-01T23:51:46;9.30;;;4.35;;
32329;SDS011;18807;52.434;13.238;2023-04-01T23:59:24;6.22;;;3.97;;
